sensor_id;sensor_type;location;lat;lon;timestamp;pressure;altitude;pressure_sealevel;temperature;humidity
53758;BME280;39674;59.860;30.672;2023-01-27T00:00:31;101449.47;;;-0.30;100.00
53758;BME280;39674;59.860;30.672;2023-01-27T00:03:03;101443.38;;;-0.34;100.00
53758;BME280;39674;59.860;30.672;2023-01-27T00:05:33;101452.91;;;-0.33;100.00
53758;BME280;39674;59.860;30.672;2023-01-27T00:08:02;101449.44;;;-0.37;100.00
53758;BME280;39674;59.860;30.672;2023-01-27T00:10:34;101454.63;;;-0.37;100.00
53758;BME280;39674;59.860;30.672;2023-01-27T00:13:11;101475.41;;;-0.37;100.00
53758;BME280;39674;59.860;30.672;2023-01-27T00:16:00;101469.31;;;-0.37;100.00
53758;BME280;39674;59.860;30.672;2023-01-27T00:18:30;101474.53;;;-0.34;100.00
53758;BME280;39674;59.860;30.672;2023-01-27T00:21:06;101478.81;;;-0.41;100.00
53758;BME280;39674;59.860;30.672;2023-01-27T00:23:55;101477.09;;;-0.40;100.00
53758;BME280;39674;59.860;30.672;2023-01-27T00:26:44;101469.28;;;-0.43;100.00
53758;BME280;39674;59.860;30.672;2023-01-27T00:29:17;101465.81;;;-0.45;100.00
53758;BME280;39674;59.860;30.672;2023-01-27T00:31:46;101473.59;;;-0.47;100.00
53758;BME280;39674;59.860;30.672;2023-01-27T00:34:38;101479.63;;;-0.50;100.00
53758;BME280;39674;59.860;30.672;2023-01-27T00:37:25;101479.63;;;-0.53;100.00
53758;BME280;39674;59.860;30.672;2023-01-27T00:39:58;101484.81;;;-0.53;100.00
53758;BME280;39674;59.860;30.672;2023-01-27T00:42:31;101490.00;;;-0.53;100.00
53758;BME280;39674;59.860;30.672;2023-01-27T00:45:12;101492.56;;;-0.54;100.00
53758;BME280;39674;59.860;30.672;2023-01-27T00:47:59;101493.41;;;-0.57;100.00
53758;BME280;39674;59.860;30.672;2023-01-27T00:50:32;101496.84;;;-0.61;100.00
53758;BME280;39674;59.860;30.672;2023-01-27T00:53:07;101507.22;;;-0.61;100.00
53758;BME280;39674;59.860;30.672;2023-01-27T00:55:36;101502.00;;;-0.67;100.00
53758;BME280;39674;59.860;30.672;2023-01-27T00:58:13;101508.03;;;-0.68;100.00
53758;BME280;39674;59.860;30.672;2023-01-27T01:00:43;101510.59;;;-0.71;100.00
53758;BME280;39674;59.860;30.672;2023-01-27T01:03:14;101516.63;;;-0.75;100.00
53758;BME280;39674;59.860;30.672;2023-01-27T01:05:46;101511.44;;;-0.75;100.00
53758;BME280;39674;59.860;30.672;2023-01-27T01:08:27;101519.22;;;-0.75;100.00
53758;BME280;39674;59.860;30.672;2023-01-27T01:10:55;101524.41;;;-0.75;100.00
53758;BME280;39674;59.860;30.672;2023-01-27T01:13:26;101512.28;;;-0.76;100.00
53758;BME280;39674;59.860;30.672;2023-01-27T01:15:56;101512.34;;;-0.73;100.00
53758;BME280;39674;59.860;30.672;2023-01-27T01:18:28;101524.41;;;-0.75;100.00
53758;BME280;39674;59.860;30.672;2023-01-27T01:21:10;101526.16;;;-0.74;100.00
53758;BME280;39674;59.860;30.672;2023-01-27T01:23:40;101534.78;;;-0.75;100.00
53758;BME280;39674;59.860;30.672;2023-01-27T01:26:21;101528.75;;;-0.76;100.00
53758;BME280;39674;59.860;30.672;2023-01-27T01:28:53;101540.81;;;-0.79;100.00
53758;BME280;39674;59.860;30.672;2023-01-27T01:31:37;101539.06;;;-0.82;100.00
53758;BME280;39674;59.860;30.672;2023-01-27T01:34:08;101548.56;;;-0.81;100.00
53758;BME280;39674;59.860;30.672;2023-01-27T01:36:40;101546.84;;;-0.82;100.00
53758;BME280;39674;59.860;30.672;2023-01-27T01:39:10;101545.09;;;-0.82;100.00
53758;BME280;39674;59.860;30.672;2023-01-27T01:41:39;101540.78;;;-0.81;100.00
53758;BME280;39674;59.860;30.672;2023-01-27T01:44:23;101548.56;;;-0.83;100.00
53758;BME280;39674;59.860;30.672;2023-01-27T01:46:53;101551.09;;;-0.87;100.00
53758;BME280;39674;59.860;30.672;2023-01-27T01:49:26;101552.84;;;-0.88;100.00
53758;BME280;39674;59.860;30.672;2023-01-27T01:51:58;101562.38;;;-0.87;100.00
53758;BME280;39674;59.860;30.672;2023-01-27T01:54:31;101557.13;;;-0.90;100.00
53758;BME280;39674;59.860;30.672;2023-01-27T01:57:09;101553.69;;;-0.92;100.00
53758;BME280;39674;59.860;30.672;2023-01-27T01:59:45;101558.88;;;-0.92;100.00
53758;BME280;39674;59.860;30.672;2023-01-27T02:02:17;101560.56;;;-0.94;100.00
53758;BME280;39674;59.860;30.672;2023-01-27T02:04:51;101569.19;;;-0.95;100.00
53758;BME280;39674;59.860;30.672;2023-01-27T02:07:30;101575.22;;;-0.94;100.00
53758;BME280;39674;59.860;30.672;2023-01-27T02:10:05;101589.09;;;-0.95;100.00
53758;BME280;39674;59.860;30.672;2023-01-27T02:12:48;101579.56;;;-0.95;100.00
53758;BME280;39674;59.860;30.672;2023-01-27T02:15:19;101591.69;;;-0.94;100.00
53758;BME280;39674;59.860;30.672;2023-01-27T02:17:55;101594.28;;;-0.94;100.00
53758;BME280;39674;59.860;30.672;2023-01-27T02:20:27;101586.50;;;-0.94;100.00
53758;BME280;39674;59.860;30.672;2023-01-27T02:23:03;101586.50;;;-0.94;100.00
53758;BME280;39674;59.860;30.672;2023-01-27T02:28:27;101586.50;;;-0.92;100.00
53758;BME280;39674;59.860;30.672;2023-01-27T02:30:59;101598.63;;;-0.93;100.00
53758;BME280;39674;59.860;30.672;2023-01-27T02:33:28;101588.25;;;-0.93;100.00
53758;BME280;39674;59.860;30.672;2023-01-27T02:36:04;101591.69;;;-0.94;100.00
53758;BME280;39674;59.860;30.672;2023-01-27T02:38:34;101603.75;;;-0.96;100.00
53758;BME280;39674;59.860;30.672;2023-01-27T02:41:06;101605.50;;;-0.95;100.00
53758;BME280;39674;59.860;30.672;2023-01-27T02:43:45;101610.66;;;-0.98;100.00
53758;BME280;39674;59.860;30.672;2023-01-27T02:46:27;101618.41;;;-1.01;100.00
53758;BME280;39674;59.860;30.672;2023-01-27T02:51:01;101620.09;;;-1.03;100.00
53758;BME280;39674;59.860;30.672;2023-01-27T02:52:10;101613.13;;;-1.09;100.00
53758;BME280;39674;59.860;30.672;2023-01-27T02:54:50;101614.84;;;-1.11;100.00
53758;BME280;39674;59.860;30.672;2023-01-27T02:57:30;101620.00;;;-1.13;100.00
53758;BME280;39674;59.860;30.672;2023-01-27T03:00:26;101622.59;;;-1.13;100.00
53758;BME280;39674;59.860;30.672;2023-01-27T03:02:58;101629.53;;;-1.11;100.00
53758;BME280;39674;59.860;30.672;2023-01-27T03:05:29;101631.22;;;-1.14;100.00
53758;BME280;39674;59.860;30.672;2023-01-27T03:08:03;101629.47;;;-1.18;100.00
53758;BME280;39674;59.860;30.672;2023-01-27T03:10:34;101627.72;;;-1.19;100.00
53758;BME280;39674;59.860;30.672;2023-01-27T03:13:11;101636.34;;;-1.20;100.00
53758;BME280;39674;59.860;30.672;2023-01-27T03:16:05;101638.03;;;-1.20;100.00
53758;BME280;39674;59.860;30.672;2023-01-27T03:19:05;101633.69;;;-1.24;100.00
53758;BME280;39674;59.860;30.672;2023-01-27T03:21:39;101630.19;;;-1.28;100.00
53758;BME280;39674;59.860;30.672;2023-01-27T03:24:12;101626.69;;;-1.32;100.00
53758;BME280;39674;59.860;30.672;2023-01-27T03:26:45;101631.88;;;-1.32;100.00
53758;BME280;39674;59.860;30.672;2023-01-27T03:29:17;101643.06;;;-1.37;100.00
53758;BME280;39674;59.860;30.672;2023-01-27T03:32:10;101651.63;;;-1.41;100.00
53758;BME280;39674;59.860;30.672;2023-01-27T03:34:55;101645.53;;;-1.43;100.00
53758;BME280;39674;59.860;30.672;2023-01-27T03:37:38;101651.59;;;-1.44;100.00
53758;BME280;39674;59.860;30.672;2023-01-27T03:40:31;101648.97;;;-1.46;100.00
53758;BME280;39674;59.860;30.672;2023-01-27T03:43:26;101649.00;;;-1.43;100.00
53758;BME280;39674;59.860;30.672;2023-01-27T03:46:21;101661.06;;;-1.45;100.00
53758;BME280;39674;59.860;30.672;2023-01-27T03:48:53;101652.44;;;-1.44;100.00
53758;BME280;39674;59.860;30.672;2023-01-27T03:51:31;101663.72;;;-1.40;100.00
53758;BME280;39674;59.860;30.672;2023-01-27T03:54:02;101657.69;;;-1.41;100.00
53758;BME280;39674;59.860;30.672;2023-01-27T03:56:31;101668.06;;;-1.38;100.00
53758;BME280;39674;59.860;30.672;2023-01-27T03:59:11;101667.22;;;-1.38;100.00
53758;BME280;39674;59.860;30.672;2023-01-27T04:01:39;101678.44;;;-1.39;100.00
53758;BME280;39674;59.860;30.672;2023-01-27T04:04:22;101678.41;;;-1.41;100.00
53758;BME280;39674;59.860;30.672;2023-01-27T04:07:10;101681.03;;;-1.39;100.00
53758;BME280;39674;59.860;30.672;2023-01-27T04:09:39;101675.84;;;-1.39;100.00
53758;BME280;39674;59.860;30.672;2023-01-27T04:12:10;101672.41;;;-1.38;100.00
53758;BME280;39674;59.860;30.672;2023-01-27T04:14:42;101679.22;;;-1.43;100.00
53758;BME280;39674;59.860;30.672;2023-01-27T04:17:35;101688.72;;;-1.44;100.00
53758;BME280;39674;59.860;30.672;2023-01-27T04:20:10;101684.41;;;-1.43;100.00
53758;BME280;39674;59.860;30.672;2023-01-27T04:22:42;101693.00;;;-1.46;100.00
53758;BME280;39674;59.860;30.672;2023-01-27T04:25:21;101701.69;;;-1.42;100.00
53758;BME280;39674;59.860;30.672;2023-01-27T04:27:53;101710.28;;;-1.47;100.00
53758;BME280;39674;59.860;30.672;2023-01-27T04:30:28;101703.34;;;-1.49;100.00
53758;BME280;39674;59.860;30.672;2023-01-27T04:32:57;101705.00;;;-1.54;100.00
53758;BME280;39674;59.860;30.672;2023-01-27T04:35:36;101703.28;;;-1.54;100.00
53758;BME280;39674;59.860;30.672;2023-01-27T04:38:14;101727.41;;;-1.58;100.00
53758;BME280;39674;59.860;30.672;2023-01-27T04:40:48;101722.16;;;-1.61;100.00
53758;BME280;39674;59.860;30.672;2023-01-27T04:43:36;101725.59;;;-1.62;100.00
53758;BME280;39674;59.860;30.672;2023-01-27T04:46:10;101723.91;;;-1.62;100.00
53758;BME280;39674;59.860;30.672;2023-01-27T04:48:43;101732.44;;;-1.67;100.00
53758;BME280;39674;59.860;30.672;2023-01-27T04:51:17;101731.50;;;-1.72;100.00
53758;BME280;39674;59.860;30.672;2023-01-27T04:53:46;101734.00;;;-1.77;100.00
53758;BME280;39674;59.860;30.672;2023-01-27T04:56:21;101729.66;;;-1.78;100.00
53758;BME280;39674;59.860;30.672;2023-01-27T04:58:50;101705.22;;;-1.96;100.00
53758;BME280;39674;59.860;30.672;2023-01-27T05:01:19;101738.28;;;-1.81;100.00
53758;BME280;39674;59.860;30.672;2023-01-27T05:03:51;101747.78;;;-1.80;100.00
53758;BME280;39674;59.860;30.672;2023-01-27T05:06:24;101758.16;;;-1.80;100.00
53758;BME280;39674;59.860;30.672;2023-01-27T05:09:00;101740.84;;;-1.81;100.00
53758;BME280;39674;59.860;30.672;2023-01-27T05:11:48;101750.34;;;-1.81;100.00
53758;BME280;39674;59.860;30.672;2023-01-27T05:14:19;101751.22;;;-1.81;100.00
53758;BME280;39674;59.860;30.672;2023-01-27T05:16:51;101767.66;;;-1.80;100.00
53758;BME280;39674;59.860;30.672;2023-01-27T05:19:31;101771.06;;;-1.83;100.00
53758;BME280;39674;59.860;30.672;2023-01-27T05:22:03;101774.44;;;-1.85;100.00
53758;BME280;39674;59.860;30.672;2023-01-27T05:24:35;101773.59;;;-1.86;100.00
53758;BME280;39674;59.860;30.672;2023-01-27T05:27:08;101776.09;;;-1.89;100.00
53758;BME280;39674;59.860;30.672;2023-01-27T05:29:36;101776.97;;;-1.90;100.00
53758;BME280;39674;59.860;30.672;2023-01-27T05:32:22;101797.69;;;-1.90;100.00
53758;BME280;39674;59.860;30.672;2023-01-27T05:34:57;101786.47;;;-1.89;100.00
53758;BME280;39674;59.860;30.672;2023-01-27T05:37:27;101784.75;;;-1.90;100.00
53758;BME280;39674;59.860;30.672;2023-01-27T05:39:57;101796.81;;;-1.89;100.00
53758;BME280;39674;59.860;30.672;2023-01-27T05:42:27;101801.16;;;-1.88;100.00
53758;BME280;39674;59.860;30.672;2023-01-27T05:44:56;101806.22;;;-1.94;100.00
53758;BME280;39674;59.860;30.672;2023-01-27T05:47:30;101805.38;;;-1.95;100.00
53758;BME280;39674;59.860;30.672;2023-01-27T05:50:00;101810.56;;;-1.95;100.00
53758;BME280;39674;59.860;30.672;2023-01-27T05:52:31;101807.13;;;-1.94;100.00
53758;BME280;39674;59.860;30.672;2023-01-27T05:55:02;101810.56;;;-1.95;100.00
53758;BME280;39674;59.860;30.672;2023-01-27T05:57:30;101818.31;;;-1.96;100.00
53758;BME280;39674;59.860;30.672;2023-01-27T05:59:58;101810.53;;;-1.96;100.00
53758;BME280;39674;59.860;30.672;2023-01-27T06:02:31;101812.22;;;-1.97;100.00
53758;BME280;39674;59.860;30.672;2023-01-27T06:05:05;101810.53;;;-1.96;100.00
53758;BME280;39674;59.860;30.672;2023-01-27T06:07:41;101820.03;;;-1.95;100.00
53758;BME280;39674;59.860;30.672;2023-01-27T06:10:13;101821.78;;;-1.94;100.00
53758;BME280;39674;59.860;30.672;2023-01-27T06:12:55;101823.59;;;-1.90;100.00
53758;BME280;39674;59.860;30.672;2023-01-27T06:15:28;101833.94;;;-1.90;100.00
53758;BME280;39674;59.860;30.672;2023-01-27T06:18:25;101843.44;;;-1.89;100.00
53758;BME280;39674;59.860;30.672;2023-01-27T06:20:57;101846.91;;;-1.90;100.00
53758;BME280;39674;59.860;30.672;2023-01-27T06:23:28;101851.22;;;-1.89;100.00
53758;BME280;39674;59.860;30.672;2023-01-27T06:26:02;101848.63;;;-1.89;100.00
53758;BME280;39674;59.860;30.672;2023-01-27T06:28:33;101852.13;;;-1.87;100.00
53758;BME280;39674;59.860;30.672;2023-01-27T06:31:04;101852.97;;;-1.88;100.00
53758;BME280;39674;59.860;30.672;2023-01-27T06:33:38;101849.50;;;-1.90;100.00
53758;BME280;39674;59.860;30.672;2023-01-27T06:36:13;101856.38;;;-1.89;100.00
53758;BME280;39674;59.860;30.672;2023-01-27T06:38:48;101859.84;;;-1.90;100.00
53758;BME280;39674;59.860;30.672;2023-01-27T06:41:22;101857.25;;;-1.90;100.00
53758;BME280;39674;59.860;30.672;2023-01-27T06:43:51;101866.75;;;-1.89;100.00
53758;BME280;39674;59.860;30.672;2023-01-27T06:46:20;101871.97;;;-1.87;100.00
53758;BME280;39674;59.860;30.672;2023-01-27T06:48:52;101875.38;;;-1.90;100.00
53758;BME280;39674;59.860;30.672;2023-01-27T06:51:23;101883.16;;;-1.90;100.00
53758;BME280;39674;59.860;30.672;2023-01-27T06:53:58;101884.00;;;-1.91;100.00
53758;BME280;39674;59.860;30.672;2023-01-27T06:56:27;101889.16;;;-1.91;100.00
53758;BME280;39674;59.860;30.672;2023-01-27T06:59:01;101883.06;;;-1.93;100.00
53758;BME280;39674;59.860;30.672;2023-01-27T07:01:34;101886.50;;;-1.94;100.00
53758;BME280;39674;59.860;30.672;2023-01-27T07:04:19;101887.41;;;-1.94;100.00
53758;BME280;39674;59.860;30.672;2023-01-27T07:06:57;101885.50;;;-2.02;100.00
53758;BME280;39674;59.860;30.672;2023-01-27T07:09:35;101891.47;;;-2.05;100.00
53758;BME280;39674;59.860;30.672;2023-01-27T07:12:17;101895.00;;;-2.01;100.00
53758;BME280;39674;59.860;30.672;2023-01-27T07:14:51;101894.13;;;-2.03;100.00
53758;BME280;39674;59.860;30.672;2023-01-27T07:17:33;101897.59;;;-2.01;100.00
53758;BME280;39674;59.860;30.672;2023-01-27T07:20:53;101903.66;;;-2.01;100.00
53758;BME280;39674;59.860;30.672;2023-01-27T07:23:03;101909.69;;;-2.00;100.00
53758;BME280;39674;59.860;30.672;2023-01-27T07:25:39;101896.72;;;-2.03;100.00
53758;BME280;39674;59.860;30.672;2023-01-27T07:28:14;101907.00;;;-2.05;100.00
53758;BME280;39674;59.860;30.672;2023-01-27T07:30:46;101914.75;;;-2.06;100.00
53758;BME280;39674;59.860;30.672;2023-01-27T07:33:56;101918.19;;;-2.07;100.00
53758;BME280;39674;59.860;30.672;2023-01-27T07:36:32;101924.25;;;-2.07;100.00
53758;BME280;39674;59.860;30.672;2023-01-27T07:39:06;101933.72;;;-2.07;100.00
53758;BME280;39674;59.860;30.672;2023-01-27T07:41:36;101938.00;;;-2.10;100.00
53758;BME280;39674;59.860;30.672;2023-01-27T07:44:11;101937.13;;;-2.10;100.00
53758;BME280;39674;59.860;30.672;2023-01-27T07:46:39;101939.72;;;-2.08;100.00
53758;BME280;39674;59.860;30.672;2023-01-27T07:49:18;101951.88;;;-2.06;100.00
53758;BME280;39674;59.860;30.672;2023-01-27T07:52:06;101948.38;;;-2.10;100.00
53758;BME280;39674;59.860;30.672;2023-01-27T07:54:37;101951.75;;;-2.12;100.00
53758;BME280;39674;59.860;30.672;2023-01-27T07:57:12;101961.19;;;-2.16;100.00
53758;BME280;39674;59.860;30.672;2023-01-27T07:59:41;101971.56;;;-2.14;100.00
53758;BME280;39674;59.860;30.672;2023-01-27T08:02:14;101979.38;;;-2.11;100.00
53758;BME280;39674;59.860;30.672;2023-01-27T08:04:49;101978.56;;;-2.08;100.00
53758;BME280;39674;59.860;30.672;2023-01-27T08:07:25;101978.63;;;-2.05;100.00
53758;BME280;39674;59.860;30.672;2023-01-27T08:10:04;101974.19;;;-2.11;100.00
53758;BME280;39674;59.860;30.672;2023-01-27T08:12:38;101981.94;;;-2.13;100.00
53758;BME280;39674;59.860;30.672;2023-01-27T08:15:11;101986.28;;;-2.12;100.00
53758;BME280;39674;59.860;30.672;2023-01-27T08:17:42;101990.53;;;-2.14;100.00
53758;BME280;39674;59.860;30.672;2023-01-27T08:20:11;101989.69;;;-2.13;100.00
53758;BME280;39674;59.860;30.672;2023-01-27T08:22:40;101985.41;;;-2.12;100.00
53758;BME280;39674;59.860;30.672;2023-01-27T08:25:13;101992.41;;;-2.08;100.00
53758;BME280;39674;59.860;30.672;2023-01-27T08:28:04;101985.44;;;-2.11;100.00
53758;BME280;39674;59.860;30.672;2023-01-27T08:30:37;101997.56;;;-2.10;100.00
53758;BME280;39674;59.860;30.672;2023-01-27T08:33:22;101998.50;;;-2.06;100.00
53758;BME280;39674;59.860;30.672;2023-01-27T08:35:55;102001.81;;;-2.12;100.00
53758;BME280;39674;59.860;30.672;2023-01-27T08:38:24;101994.03;;;-2.12;100.00
53758;BME280;39674;59.860;30.672;2023-01-27T08:40:53;101992.38;;;-2.10;100.00
53758;BME280;39674;59.860;30.672;2023-01-27T08:43:30;101992.41;;;-2.06;100.00
53758;BME280;39674;59.860;30.672;2023-01-27T08:46:02;101997.59;;;-2.06;100.00
53758;BME280;39674;59.860;30.672;2023-01-27T08:48:36;102009.72;;;-2.05;100.00
53758;BME280;39674;59.860;30.672;2023-01-27T08:51:10;102006.19;;;-2.07;100.00
53758;BME280;39674;59.860;30.672;2023-01-27T08:53:42;102008.84;;;-2.06;100.00
53758;BME280;39674;59.860;30.672;2023-01-27T08:56:11;102016.63;;;-2.04;100.00
53758;BME280;39674;59.860;30.672;2023-01-27T08:58:43;102016.69;;;-2.01;100.00
53758;BME280;39674;59.860;30.672;2023-01-27T09:01:19;102021.88;;;-2.01;100.00
53758;BME280;39674;59.860;30.672;2023-01-27T09:03:53;102018.41;;;-2.02;100.00
53758;BME280;39674;59.860;30.672;2023-01-27T09:06:24;102018.38;;;-2.03;100.00
53758;BME280;39674;59.860;30.672;2023-01-27T09:08:54;102025.25;;;-2.04;100.00
53758;BME280;39674;59.860;30.672;2023-01-27T09:11:52;102032.19;;;-2.04;100.00
53758;BME280;39674;59.860;30.672;2023-01-27T09:14:24;102024.44;;;-2.03;100.00
53758;BME280;39674;59.860;30.672;2023-01-27T09:16:56;102027.97;;;-1.99;100.00
53758;BME280;39674;59.860;30.672;2023-01-27T09:19:32;102023.69;;;-1.97;100.00
53758;BME280;39674;59.860;30.672;2023-01-27T09:22:01;102028.94;;;-1.94;100.00
53758;BME280;39674;59.860;30.672;2023-01-27T09:24:39;102022.00;;;-1.95;100.00
53758;BME280;39674;59.860;30.672;2023-01-27T09:27:15;102029.00;;;-1.92;100.00
53758;BME280;39674;59.860;30.672;2023-01-27T09:29:47;102029.00;;;-1.91;100.00
53758;BME280;39674;59.860;30.672;2023-01-27T09:32:19;102037.66;;;-1.89;100.00
53758;BME280;39674;59.860;30.672;2023-01-27T09:34:51;102028.25;;;-1.85;100.00
53758;BME280;39674;59.860;30.672;2023-01-27T09:37:25;102031.66;;;-1.88;100.00
53758;BME280;39674;59.860;30.672;2023-01-27T09:40:08;102027.38;;;-1.86;100.00
53758;BME280;39674;59.860;30.672;2023-01-27T09:43:09;102023.03;;;-1.87;100.00
53758;BME280;39674;59.860;30.672;2023-01-27T09:45:57;102030.72;;;-1.91;100.00
53758;BME280;39674;59.860;30.672;2023-01-27T09:48:48;102032.31;;;-1.98;100.00
53758;BME280;39674;59.860;30.672;2023-01-27T09:51:26;102035.72;;;-1.99;100.00
53758;BME280;39674;59.860;30.672;2023-01-27T09:57:01;102035.84;;;-1.93;100.00
53758;BME280;39674;59.860;30.672;2023-01-27T09:59:57;102043.75;;;-1.87;100.00
53758;BME280;39674;59.860;30.672;2023-01-27T10:02:43;102049.91;;;-1.82;100.00
53758;BME280;39674;59.860;30.672;2023-01-27T10:05:43;102029.19;;;-1.82;100.00
53758;BME280;39674;59.860;30.672;2023-01-27T10:08:34;102041.31;;;-1.81;100.00
53758;BME280;39674;59.860;30.672;2023-01-27T10:11:19;102037.88;;;-1.80;100.00
53758;BME280;39674;59.860;30.672;2023-01-27T10:13:54;102043.03;;;-1.81;100.00
53758;BME280;39674;59.860;30.672;2023-01-27T10:16:40;102045.63;;;-1.81;100.00
53758;BME280;39674;59.860;30.672;2023-01-27T10:19:25;102047.28;;;-1.83;100.00
53758;BME280;39674;59.860;30.672;2023-01-27T10:22:12;102048.19;;;-1.83;100.00
53758;BME280;39674;59.860;30.672;2023-01-27T10:24:58;102052.44;;;-1.85;100.00
53758;BME280;39674;59.860;30.672;2023-01-27T10:27:36;102049.84;;;-1.85;100.00
53758;BME280;39674;59.860;30.672;2023-01-27T10:30:09;102050.72;;;-1.84;100.00
53758;BME280;39674;59.860;30.672;2023-01-27T10:32:56;102055.03;;;-1.85;100.00
53758;BME280;39674;59.860;30.672;2023-01-27T10:35:44;102051.63;;;-1.84;100.00
53758;BME280;39674;59.860;30.672;2023-01-27T10:38:28;102049.88;;;-1.83;100.00
53758;BME280;39674;59.860;30.672;2023-01-27T10:41:11;102060.25;;;-1.82;100.00
53758;BME280;39674;59.860;30.672;2023-01-27T10:43:58;102062.09;;;-1.78;100.00
53758;BME280;39674;59.860;30.672;2023-01-27T10:46:38;102047.41;;;-1.79;100.00
53758;BME280;39674;59.860;30.672;2023-01-27T10:49:20;102050.00;;;-1.79;100.00
53758;BME280;39674;59.860;30.672;2023-01-27T10:51:56;102061.06;;;-1.84;100.00
53758;BME280;39674;59.860;30.672;2023-01-27T10:54:38;102060.25;;;-1.82;100.00
53758;BME280;39674;59.860;30.672;2023-01-27T10:57:12;102060.31;;;-1.80;100.00
53758;BME280;39674;59.860;30.672;2023-01-27T10:59:47;102059.44;;;-1.79;100.00
53758;BME280;39674;59.860;30.672;2023-01-27T11:02:24;102056.84;;;-1.81;100.00
53758;BME280;39674;59.860;30.672;2023-01-27T11:05:01;102055.16;;;-1.79;100.00
53758;BME280;39674;59.860;30.672;2023-01-27T11:07:33;102051.75;;;-1.78;100.00
53758;BME280;39674;59.860;30.672;2023-01-27T11:10:18;102055.22;;;-1.75;100.00
53758;BME280;39674;59.860;30.672;2023-01-27T11:12:56;102062.16;;;-1.74;100.00
53758;BME280;39674;59.860;30.672;2023-01-27T11:15:54;102050.94;;;-1.73;100.00
53758;BME280;39674;59.860;30.672;2023-01-27T11:18:41;102052.69;;;-1.72;100.00
53758;BME280;39674;59.860;30.672;2023-01-27T11:21:16;102061.41;;;-1.69;100.00
53758;BME280;39674;59.860;30.672;2023-01-27T11:23:54;102061.31;;;-1.73;100.00
53758;BME280;39674;59.860;30.672;2023-01-27T11:26:29;102067.34;;;-1.74;100.00
53758;BME280;39674;59.860;30.672;2023-01-27T11:29:15;102072.50;;;-1.74;100.00
53758;BME280;39674;59.860;30.672;2023-01-27T11:31:52;102074.22;;;-1.76;100.00
53758;BME280;39674;59.860;30.672;2023-01-27T11:34:40;102079.41;;;-1.76;100.00
53758;BME280;39674;59.860;30.672;2023-01-27T11:37:38;102082.81;;;-1.78;100.00
53758;BME280;39674;59.860;30.672;2023-01-27T11:40:17;102085.41;;;-1.78;100.00
53758;BME280;39674;59.860;30.672;2023-01-27T11:42:55;102083.41;;;-1.89;100.00
53758;BME280;39674;59.860;30.672;2023-01-27T11:45:29;102093.72;;;-1.92;100.00
53758;BME280;39674;59.860;30.672;2023-01-27T11:48:16;102089.28;;;-1.98;100.00
53758;BME280;39674;59.860;30.672;2023-01-27T11:50:49;102099.53;;;-2.01;100.00
53758;BME280;39674;59.860;30.672;2023-01-27T11:53:26;102100.41;;;-2.02;100.00
53758;BME280;39674;59.860;30.672;2023-01-27T11:56:13;102101.31;;;-1.99;100.00
53758;BME280;39674;59.860;30.672;2023-01-27T11:59:13;102112.59;;;-1.97;100.00
53758;BME280;39674;59.860;30.672;2023-01-27T12:01:54;102110.81;;;-1.99;100.00
53758;BME280;39674;59.860;30.672;2023-01-27T12:04:33;102113.28;;;-2.05;100.00
53758;BME280;39674;59.860;30.672;2023-01-27T12:07:30;102111.47;;;-2.10;100.00
53758;BME280;39674;59.860;30.672;2023-01-27T12:10:26;102112.19;;;-2.15;100.00
53758;BME280;39674;59.860;30.672;2023-01-27T12:13:06;102119.91;;;-2.17;100.00
53758;BME280;39674;59.860;30.672;2023-01-27T12:15:45;102119.00;;;-2.19;100.00
53758;BME280;39674;59.860;30.672;2023-01-27T12:18:22;102107.72;;;-2.21;100.00
53758;BME280;39674;59.860;30.672;2023-01-27T12:20:56;102111.22;;;-2.19;100.00
53758;BME280;39674;59.860;30.672;2023-01-27T12:23:27;102116.41;;;-2.19;100.00
53758;BME280;39674;59.860;30.672;2023-01-27T12:26:03;102111.31;;;-2.16;100.00
53758;BME280;39674;59.860;30.672;2023-01-27T12:28:35;102109.47;;;-2.20;100.00
53758;BME280;39674;59.860;30.672;2023-01-27T12:31:06;102107.56;;;-2.27;100.00
53758;BME280;39674;59.860;30.672;2023-01-27T12:33:39;102111.94;;;-2.24;100.00
53758;BME280;39674;59.860;30.672;2023-01-27T12:36:14;102118.84;;;-2.25;100.00
53758;BME280;39674;59.860;30.672;2023-01-27T12:38:53;102111.78;;;-2.32;100.00
53758;BME280;39674;59.860;30.672;2023-01-27T12:41:29;102119.53;;;-2.32;100.00
53758;BME280;39674;59.860;30.672;2023-01-27T12:44:07;102121.25;;;-2.33;100.00
53758;BME280;39674;59.860;30.672;2023-01-27T12:46:41;102125.59;;;-2.32;100.00
53758;BME280;39674;59.860;30.672;2023-01-27T12:49:31;102122.97;;;-2.33;100.00
53758;BME280;39674;59.860;30.672;2023-01-27T12:52:19;102122.91;;;-2.36;100.00
53758;BME280;39674;59.860;30.672;2023-01-27T12:54:54;102118.53;;;-2.39;100.00
53758;BME280;39674;59.860;30.672;2023-01-27T12:57:31;102131.41;;;-2.40;100.00
53758;BME280;39674;59.860;30.672;2023-01-27T13:00:08;102138.34;;;-2.39;100.00
53758;BME280;39674;59.860;30.672;2023-01-27T13:03:05;102134.16;;;-2.34;100.00
53758;BME280;39674;59.860;30.672;2023-01-27T13:05:51;102134.16;;;-2.34;100.00
53758;BME280;39674;59.860;30.672;2023-01-27T13:08:26;102138.28;;;-2.43;100.00
53758;BME280;39674;59.860;30.672;2023-01-27T13:10:58;102127.84;;;-2.46;100.00
53758;BME280;39674;59.860;30.672;2023-01-27T13:13:31;102133.00;;;-2.46;100.00
53758;BME280;39674;59.860;30.672;2023-01-27T13:16:03;102138.13;;;-2.49;100.00
53758;BME280;39674;59.860;30.672;2023-01-27T13:18:36;102130.34;;;-2.49;100.00
53758;BME280;39674;59.860;30.672;2023-01-27T13:21:12;102132.09;;;-2.48;100.00
53758;BME280;39674;59.860;30.672;2023-01-27T13:23:53;102135.53;;;-2.49;100.00
53758;BME280;39674;59.860;30.672;2023-01-27T13:26:24;102137.91;;;-2.56;100.00